Time;durP1;ratioP1;P1;durP2;ratioP2;P2;SDS_P1;SDS_P2;PMS_P1;PMS_P2;Temp;Humidity;BMP_temperature;BMP_pressure;BME280_temperature;BME280_humidity;BME280_pressure;Samples;Min_cycle;Max_cycle;Signal;HPM_P1;HPM_P2
2022/01/15 00:08:20;;;;;;;17.98;8.35;;;;;;;5.49;61.82;101337.31;18562828;32;20097;-70
2022/01/15 00:18:39;;;;;;;16.95;8.15;;;;;;;5.55;61.47;101330.66;18562730;32;20102;-71
2022/01/15 00:28:42;;;;;;;16.20;8.23;;;;;;;5.51;61.70;101361.56;18561832;32;20084;-71
2022/01/15 00:38:47;;;;;;;16.62;8.02;;;;;;;5.73;61.23;101370.91;18561850;32;20084;-70
2022/01/15 00:48:50;;;;;;;19.37;8.60;;;;;;;5.53;61.96;101376.31;18561364;32;20092;-71
2022/01/15 00:58:55;;;;;;;17.20;7.80;;;;;;;5.65;61.52;101381.03;18561459;32;20111;-71
2022/01/15 01:08:58;;;;;;;16.55;8.35;;;;;;;5.74;61.05;101392.53;18560914;32;20102;-71
2022/01/15 01:29:34;;;;;;;16.98;8.32;;;;;;;5.79;60.51;101417.78;18560522;32;20088;-71
2022/01/15 01:39:44;;;;;;;17.20;7.72;;;;;;;5.31;62.61;101429.09;18560100;32;20102;-71
2022/01/15 01:49:47;;;;;;;15.05;7.47;;;;;;;5.23;62.53;101422.75;18559917;32;20088;-72
2022/01/15 01:59:51;;;;;;;15.60;7.28;;;;;;;5.22;63.02;101428.75;18559788;32;20088;-71
2022/01/15 02:09:55;;;;;;;16.73;7.70;;;;;;;5.52;62.08;101428.09;18558483;32;20450;-71
2022/01/15 02:20:23;;;;;;;12.32;6.57;;;;;;;5.10;62.93;101422.28;18558831;32;20103;-71
2022/01/15 02:30:26;;;;;;;16.10;7.55;;;;;;;5.28;62.58;101422.09;18557913;32;20092;-71
2022/01/15 02:40:33;;;;;;;14.93;6.45;;;;;;;5.31;62.56;101408.38;18557496;32;20103;-72
2022/01/15 02:50:36;;;;;;;13.10;5.80;;;;;;;5.37;62.24;101400.81;18556962;32;20657;-71
2022/01/15 03:00:40;;;;;;;12.68;6.12;;;;;;;5.38;60.41;101392.19;18556544;32;20480;-71
2022/01/15 03:10:43;;;;;;;14.07;6.20;;;;;;;5.44;60.28;101406.22;18555917;32;20107;-70
2022/01/15 03:20:48;;;;;;;13.70;6.78;;;;;;;5.48;60.80;101410.66;18556346;32;20080;-70
2022/01/15 03:30:51;;;;;;;17.37;8.07;;;;;;;4.36;65.05;101422.03;18564398;32;20099;-71
2022/01/15 03:40:56;;;;;;;15.98;7.55;;;;;;;4.05;67.30;101444.97;18564206;32;20085;-70
2022/01/15 03:50:59;;;;;;;13.73;6.15;;;;;;;4.27;65.83;101454.50;18563883;32;20072;-71
2022/01/15 04:01:03;;;;;;;13.48;5.53;;;;;;;4.77;62.04;101442.59;18563210;32;20551;-71
2022/01/15 04:11:07;;;;;;;12.57;5.93;;;;;;;4.87;61.45;101452.47;18562966;32;20136;-70
2022/01/15 04:21:11;;;;;;;12.88;6.40;;;;;;;4.27;62.35;101474.28;18562859;32;20085;-70
2022/01/15 04:31:14;;;;;;;13.50;6.00;;;;;;;4.63;60.94;101474.00;18562131;32;20088;-70
2022/01/15 04:41:19;;;;;;;12.98;5.62;;;;;;;4.20;63.36;101478.31;18562129;32;20399;-70
2022/01/15 04:51:22;;;;;;;12.02;5.60;;;;;;;4.51;62.03;101484.72;18562140;32;20092;-70
2022/01/15 05:01:28;;;;;;;12.20;5.10;;;;;;;4.68;60.30;101494.87;18561757;32;20088;-70
2022/01/15 05:11:43;;;;;;;11.32;4.65;;;;;;;4.18;61.46;101510.06;18561440;32;20534;-70
2022/01/15 05:21:47;;;;;;;11.60;4.65;;;;;;;4.06;61.73;101505.25;18561112;32;20087;-70
2022/01/15 05:31:51;;;;;;;14.07;5.53;;;;;;;4.13;61.56;101507.28;18560904;32;20102;-70
2022/01/15 05:41:55;;;;;;;10.80;4.40;;;;;;;3.61;61.38;101512.84;18559944;32;20508;-70
2022/01/15 05:51:58;;;;;;;13.98;4.78;;;;;;;3.77;61.57;101517.81;18558738;32;20119;-70
2022/01/15 06:02:02;;;;;;;10.05;3.90;;;;;;;4.10;59.38;101531.31;18559732;32;20107;-70
2022/01/15 06:12:06;;;;;;;12.02;4.90;;;;;;;4.12;57.97;101537.41;18559392;32;20088;-70
2022/01/15 06:22:14;;;;;;;11.50;5.12;;;;;;;3.82;58.63;101539.56;18559004;32;20431;-70
2022/01/15 06:32:17;;;;;;;11.98;5.18;;;;;;;3.18;60.28;101547.06;18556320;32;20092;-70
2022/01/15 06:42:21;;;;;;;49.45;22.00;;;;;;;3.48;58.90;101546.69;18558617;32;20664;-70
2022/01/15 06:52:25;;;;;;;16.50;6.20;;;;;;;2.77;60.72;101570.06;18558484;32;20455;-70
2022/01/15 07:02:30;;;;;;;10.80;3.53;;;;;;;3.26;61.27;101570.62;18565254;32;20084;-70
2022/01/15 07:12:33;;;;;;;14.18;5.37;;;;;;;4.15;58.07;101565.09;18566195;32;20093;-70
2022/01/15 07:22:38;;;;;;;9.50;4.25;;;;;;;4.77;56.06;101577.13;18565504;32;20083;-70
2022/01/15 07:32:42;;;;;;;10.13;2.92;;;;;;;5.74;52.73;101584.28;18565076;32;20466;-70
2022/01/15 07:42:51;;;;;;;10.43;4.35;;;;;;;6.40;49.14;101580.56;18565051;32;20154;-71
2022/01/15 07:52:56;;;;;;;7.40;3.35;;;;;;;7.04;47.02;101593.91;18564807;32;20084;-71
2022/01/15 08:03:00;;;;;;;11.32;3.75;;;;;;;8.44;42.95;101603.06;18563831;32;20088;-71
2022/01/15 08:13:04;;;;;;;6.80;2.72;;;;;;;8.39;43.23;101609.87;18562577;32;20084;-71
2022/01/15 08:23:08;;;;;;;9.32;3.45;;;;;;;7.31;45.09;101625.88;18564090;32;20368;-71
2022/01/15 08:33:11;;;;;;;8.45;2.37;;;;;;;6.96;45.19;101621.34;18563503;32;20080;-71
2022/01/15 08:43:16;;;;;;;8.15;3.25;;;;;;;6.99;45.25;101626.63;18561193;32;20110;-71
2022/01/15 08:53:20;;;;;;;12.05;3.10;;;;;;;7.32;44.74;101630.22;18560409;32;20084;-70
2022/01/15 09:03:25;;;;;;;7.47;2.62;;;;;;;7.26;44.50;101617.94;18562521;32;20108;-71
2022/01/15 09:13:29;;;;;;;7.05;2.42;;;;;;;7.42;43.35;101626.22;18561607;32;20102;-71
2022/01/15 09:23:34;;;;;;;8.68;3.05;;;;;;;7.43;43.28;101617.59;18562210;32;20106;-71
2022/01/15 09:33:41;;;;;;;7.97;2.40;;;;;;;7.88;42.85;101619.78;18553626;32;20136;-72
2022/01/15 09:43:46;;;;;;;11.80;3.60;;;;;;;7.74;42.88;101613.28;18453547;32;20093;-71
2022/01/15 09:53:49;;;;;;;5.55;2.22;;;;;;;8.24;42.67;101625.06;18433465;32;20389;-71
2022/01/15 10:03:53;;;;;;;11.70;3.50;;;;;;;8.05;43.04;101620.25;18431804;32;20096;-71
2022/01/15 10:13:56;;;;;;;8.93;3.42;;;;;;;8.63;40.04;101614.00;18431305;32;20370;-71
2022/01/15 10:24:01;;;;;;;12.18;3.67;;;;;;;8.64;40.20;101617.47;18430869;32;20089;-71
2022/01/15 10:34:25;;;;;;;6.37;2.45;;;;;;;8.98;39.06;101608.75;18442377;32;20104;-71
2022/01/15 10:44:33;;;;;;;7.32;2.35;;;;;;;9.46;36.92;101603.75;18494297;32;20084;-71
2022/01/15 10:54:51;;;;;;;7.20;2.15;;;;;;;9.71;36.15;101586.03;18494003;32;20081;-71
2022/01/15 11:04:55;;;;;;;9.20;2.70;;;;;;;9.50;36.27;101578.63;18493525;32;20092;-71
2022/01/15 11:14:58;;;;;;;13.82;4.90;;;;;;;8.95;38.53;101582.66;18492672;32;20109;-71
2022/01/15 11:25:07;;;;;;;8.20;2.92;;;;;;;9.36;38.92;101571.41;18492079;32;20107;-72
2022/01/15 11:35:11;;;;;;;8.60;2.80;;;;;;;9.11;38.52;101576.06;18490218;32;20105;-71
2022/01/15 11:45:36;;;;;;;10.05;3.40;;;;;;;8.94;38.18;101580.00;18495300;32;20078;-71
2022/01/15 11:55:42;;;;;;;12.90;3.95;;;;;;;8.98;37.64;101574.88;18499551;32;20089;-72
2022/01/15 12:06:00;;;;;;;8.82;2.87;;;;;;;9.06;38.05;101550.75;18499673;32;20144;-71
2022/01/15 12:16:36;;;;;;;6.37;1.90;;;;;;;8.83;38.61;101564.12;18499441;32;20350;-71
2022/01/15 12:26:59;;;;;;;8.15;2.33;;;;;;;8.85;38.70;101557.22;18499045;32;20100;-71
2022/01/15 12:37:04;;;;;;;9.05;2.58;;;;;;;8.85;38.52;101541.63;18498676;32;20122;-71
2022/01/15 12:47:09;;;;;;;12.40;2.45;;;;;;;8.85;37.94;101534.66;18498502;32;20084;-71
2022/01/15 12:57:12;;;;;;;6.53;2.45;;;;;;;8.68;37.96;101529.06;18497723;32;20436;-71
2022/01/15 13:07:16;;;;;;;9.30;2.37;;;;;;;8.55;38.83;101519.22;18497998;32;20437;-71
2022/01/15 13:17:24;;;;;;;14.90;4.35;;;;;;;8.96;38.07;101511.47;18210911;32;57542;-71
2022/01/15 13:27:28;;;;;;;15.85;5.68;;;;;;;8.75;39.13;101514.47;18352392;32;20352;-71
2022/01/15 13:37:31;;;;;;;13.05;4.70;;;;;;;8.28;40.69;101509.84;18432621;32;20099;-71
2022/01/15 13:47:35;;;;;;;10.73;3.40;;;;;;;8.42;40.53;101510.19;18432406;32;20089;-72
2022/01/15 13:57:39;;;;;;;15.35;4.60;;;;;;;8.21;41.59;101502.72;18432125;32;20089;-71
2022/01/15 14:07:45;;;;;;;14.02;4.32;;;;;;;8.29;41.46;101503.81;18430884;32;20414;-71
2022/01/15 14:17:48;;;;;;;9.38;3.72;;;;;;;8.33;41.05;101514.31;18431831;32;20077;-71
2022/01/15 14:28:04;;;;;;;11.50;4.07;;;;;;;8.16;40.19;101511.31;18429920;32;20147;-71
2022/01/15 14:38:07;;;;;;;10.85;3.87;;;;;;;8.14;40.66;101515.56;18424040;32;207744;-71
2022/01/15 14:48:11;;;;;;;12.40;3.95;;;;;;;7.99;41.11;101512.59;18429977;32;20089;-71
2022/01/15 14:58:14;;;;;;;8.10;2.75;;;;;;;7.63;40.64;101499.50;18429280;32;20073;-71
2022/01/15 15:08:19;;;;;;;17.27;6.50;;;;;;;7.39;40.01;101517.00;18428245;32;20129;-71
2022/01/15 15:18:23;;;;;;;12.55;3.92;;;;;;;7.17;40.83;101513.78;18430827;32;20103;-71
2022/01/15 15:28:27;;;;;;;13.20;5.07;;;;;;;7.07;41.13;101525.63;18436110;32;20105;-71
2022/01/15 15:38:30;;;;;;;15.88;5.82;;;;;;;6.78;41.60;101533.34;18435776;32;20089;-71
2022/01/15 15:48:35;;;;;;;15.77;6.47;;;;;;;6.34;42.87;101528.47;18435751;32;20108;-70
2022/01/15 15:58:38;;;;;;;25.27;9.70;;;;;;;5.92;44.17;101520.16;18469384;32;20483;-71
2022/01/15 16:08:43;;;;;;;38.88;17.73;;;;;;;6.03;43.90;101511.91;18499389;32;20116;-71
2022/01/15 16:18:46;;;;;;;24.52;9.52;;;;;;;5.70;44.79;101515.91;18441008;32;20089;-68
2022/01/15 16:28:50;;;;;;;19.70;8.40;;;;;;;5.13;45.35;101528.53;18434038;32;20123;-68
2022/01/15 16:38:53;;;;;;;51.20;22.95;;;;;;;4.52;47.15;101538.19;18441510;32;20101;-68
2022/01/15 16:48:58;;;;;;;73.80;31.58;;;;;;;3.88;49.26;101540.72;18434106;32;20111;-68
2022/01/15 16:59:00;;;;;;;49.30;12.57;;;;;;;3.66;49.18;101535.44;18433589;32;20094;-68
2022/01/15 17:09:05;;;;;;;33.30;15.80;;;;;;;3.17;50.23;101532.37;18433358;32;20133;-68
2022/01/15 17:19:09;;;;;;;26.25;11.55;;;;;;;3.01;51.39;101526.50;18433309;32;20085;-68
2022/01/15 17:29:13;;;;;;;24.87;10.63;;;;;;;2.92;51.41;101541.56;18436550;32;20096;-68
2022/01/15 17:39:16;;;;;;;26.77;11.40;;;;;;;2.53;52.65;101544.84;18443117;32;20111;-68
2022/01/15 17:49:21;;;;;;;31.48;10.32;;;;;;;1.79;54.34;101560.91;18453528;32;20415;-67
2022/01/15 17:59:24;;;;;;;16.67;5.85;;;;;;;1.64;54.08;101570.41;18432622;32;20089;-67
2022/01/15 18:09:31;;;;;;;13.18;5.32;;;;;;;1.34;55.42;101573.97;18431390;32;20427;-68
2022/01/15 18:19:35;;;;;;;46.67;23.17;;;;;;;1.33;54.95;101572.22;18431804;32;20089;-67
2022/01/15 18:29:39;;;;;;;64.85;31.30;;;;;;;1.02;56.38;101567.97;18430961;32;20443;-68
2022/01/15 18:39:42;;;;;;;58.97;26.77;;;;;;;1.17;56.49;101569.59;18429902;32;20347;-68
2022/01/15 18:49:47;;;;;;;51.30;24.12;;;;;;;1.13;57.75;101571.09;18428987;32;20091;-67
2022/01/15 18:59:50;;;;;;;41.65;19.52;;;;;;;0.96;57.96;101578.78;18436948;32;20095;-68
2022/01/15 19:09:54;;;;;;;34.42;15.85;;;;;;;1.05;57.28;101593.84;18436470;32;20365;-68
2022/01/15 19:19:57;;;;;;;42.78;19.52;;;;;;;0.69;58.78;101608.94;18435977;32;20085;-67
2022/01/15 19:30:02;;;;;;;34.78;15.40;;;;;;;0.57;57.61;101642.56;18436453;32;20454;-67
2022/01/15 19:40:06;;;;;;;50.22;21.87;;;;;;;0.38;58.80;101743.31;18435134;32;20426;-67
2022/01/15 19:50:13;;;;;;;32.45;16.25;;;;;;;0.13;59.55;101604.03;18435693;32;20219;-67
2022/01/15 20:00:27;;;;;;;38.73;14.70;;;;;;;-0.18;59.40;101663.78;18435587;32;20112;-67
2022/01/15 20:10:32;;;;;;;43.70;17.27;;;;;;;-0.11;57.65;101628.22;18434426;32;20103;-67
2022/01/15 20:20:35;;;;;;;137.73;44.77;;;;;;;-0.39;59.44;101585.44;18434949;32;20093;-67
2022/01/15 20:30:40;;;;;;;88.13;34.63;;;;;;;-0.54;60.24;101668.38;18434768;32;20094;-67
2022/01/15 20:40:43;;;;;;;85.93;33.97;;;;;;;-0.67;61.11;101617.06;18434259;32;20103;-67
2022/01/15 20:50:47;;;;;;;74.30;33.73;;;;;;;-0.70;61.42;101595.56;18434317;32;20108;-67
2022/01/15 21:00:50;;;;;;;66.97;28.70;;;;;;;-0.77;61.59;101654.94;18434070;32;20081;-67
2022/01/15 21:10:55;;;;;;;51.83;26.03;;;;;;;-1.03;62.96;101643.03;18433554;32;20358;-67
2022/01/15 21:20:58;;;;;;;53.73;24.07;;;;;;;-0.89;61.62;101587.50;18433531;32;20093;-67
2022/01/15 21:31:02;;;;;;;55.20;25.20;;;;;;;-1.46;63.92;101654.78;18433120;32;20330;-67
2022/01/15 21:41:07;;;;;;;57.80;27.23;;;;;;;-1.37;62.96;101676.69;18432464;32;20089;-67
2022/01/15 21:51:12;;;;;;;52.47;24.63;;;;;;;-1.36;62.90;101652.84;18432437;32;20089;-67
2022/01/15 22:01:16;;;;;;;48.50;21.90;;;;;;;-1.93;64.52;101632.84;18432152;32;20089;-67
2022/01/15 22:11:22;;;;;;;53.87;23.70;;;;;;;-1.84;63.60;101656.50;18431625;32;20099;-67
2022/01/15 22:21:25;;;;;;;46.10;23.50;;;;;;;-1.83;64.27;101668.53;18431536;32;20093;-67
2022/01/15 22:31:30;;;;;;;51.93;24.40;;;;;;;-2.27;66.76;101686.81;18430026;32;20180;-67
2022/01/15 22:41:33;;;;;;;51.77;26.17;;;;;;;-2.09;64.90;101689.75;18451784;32;20447;-67
2022/01/15 22:51:37;;;;;;;48.83;24.80;;;;;;;-2.20;65.27;101712.03;18439960;32;20101;-67
2022/01/15 23:01:53;;;;;;;53.10;27.07;;;;;;;-2.28;65.41;101708.03;18429361;32;20362;-67
2022/01/15 23:12:03;;;;;;;50.00;26.07;;;;;;;-2.37;65.43;101724.53;18428872;32;20105;-67
2022/01/15 23:22:09;;;;;;;55.57;28.07;;;;;;;-2.21;64.07;101710.25;18427917;32;20123;-67
2022/01/15 23:32:14;;;;;;;54.23;26.20;;;;;;;-2.27;65.23;101703.03;18427302;32;20089;-67
2022/01/15 23:42:18;;;;;;;55.83;25.33;;;;;;;-2.24;66.26;101687.87;18433094;32;20077;-67
2022/01/15 23:52:24;;;;;;;48.10;21.97;;;;;;;-2.04;65.79;101705.44;18435968;32;20445;-67
